Погода Великомихайловкана неделю

Белгородская область, Россия

13 - 19 июля
  • 13июля
    Сегодня
    +17°
    +32°
    Ясно и безоблачно
    ВремяПогодаТемператураВлажностьДавлениеВетер, м/сВероятность осадков
    00:00Ясно и безоблачно+19°C57 %751 мм1.7 м/с2 %
    03:00Ясно и безоблачно+17°C60 %751 мм2.1 м/с2 %
    06:00Ясно и безоблачно+18°C55 %751 мм2.6 м/с2 %
    09:00Ясно и безоблачно+25°C39 %751 мм1.7 м/с2 %
    12:00Небольшая облачность+28°C31 %751 мм1.3 м/с2 %
    15:00Ясно и безоблачно+31°C29 %750 мм2.4 м/с2 %
    18:00Ясно и безоблачно+31°C32 %749 мм2.4 м/с2 %
    21:00Ясно и безоблачно+24°C50 %749 мм1.7 м/с2 %
  • 14июля
    Воскресенье
    +21°
    +35°
    Практически безоблачно
    ВремяПогодаТемператураВлажностьДавлениеВетер, м/сВероятность осадков
    00:00Ясно и безоблачно+21°C61 %749 мм1.8 м/с2 %
    03:00Ясно и безоблачно+18°C68 %749 мм1.4 м/с2 %
    06:00Ясно и безоблачно+20°C68 %749 мм1.2 м/с2 %
    09:00Ясно и безоблачно+28°C39 %750 мм1.3 м/с2 %
    12:00Ясно и безоблачно+31°C36 %749 мм0.6 м/с2 %
    15:00Практически безоблачно+34°C35 %748 мм1.1 м/с14 %
    18:00Небольшая облачность+33°C42 %748 мм3.3 м/с29 %
    21:00Практически безоблачно+27°C65 %749 мм1.5 м/с7 %
  • 15июля
    Понедельник
    +21°
    +37°
    Облачно с прояснениями
    ВремяПогодаТемператураВлажностьДавлениеВетер, м/сВероятность осадков
    00:00Ясно и безоблачно+24°C75 %748 мм1.9 м/с2 %
    03:00Ясно и безоблачно+23°C74 %748 мм0.8 м/с2 %
    06:00Ясно и безоблачно+23°C76 %748 мм1.5 м/с2 %
    09:00Ясно и безоблачно+31°C48 %748 мм1.8 м/с2 %
    12:00Практически безоблачно+34°C37 %748 мм2.5 м/с4 %
    15:00Облачно с прояснениями+36°C31 %748 мм5.2 м/с26 %
    18:00Практически безоблачно+34°C42 %748 мм3.8 м/с33 %
    21:00Небольшая облачность+28°C55 %748 мм2.4 м/с6 %
  • 16июля
    Вторник
    +19°
    +35°
    Облачно с прояснениями
    ВремяПогодаТемператураВлажностьДавлениеВетер, м/сВероятность осадков
    00:00Ясно и безоблачно+24°C69 %748 мм1.7 м/с2 %
    03:00Ясно и безоблачно+22°C76 %749 мм1.6 м/с2 %
    06:00Ясно и безоблачно+23°C78 %749 мм2.4 м/с2 %
    09:00Ясно и безоблачно+29°C53 %749 мм2.9 м/с2 %
    12:00Ясно и безоблачно+32°C42 %749 мм3.1 м/с6 %
    15:00Облачно с прояснениями+35°C37 %749 мм3.4 м/с19 %
    18:00Практически безоблачно+34°C39 %748 мм3.6 м/с26 %
    21:00Ясно и безоблачно+28°C53 %749 мм1.9 м/с3 %
  • 17июля
    Среда
    +21°
    +36°
    Ясно и безоблачно
    ВремяПогодаТемператураВлажностьДавлениеВетер, м/сВероятность осадков
    00:00Ясно и безоблачно+25°C69 %749 мм1.6 м/с2 %
    03:00Ясно и безоблачно+21°C81 %749 мм1.5 м/с2 %
    06:00Ясно и безоблачно+22°C81 %750 мм2.1 м/с2 %
    09:00Ясно и безоблачно+30°C56 %750 мм2.4 м/с2 %
    12:00Ясно и безоблачно+32°C39 %750 мм2.8 м/с8 %
    15:00Ясно и безоблачно+36°C34 %750 мм3.5 м/с8 %
    18:00Ясно и безоблачно+35°C33 %749 мм3.6 м/с8 %
    21:00Ясно и безоблачно+28°C46 %750 мм1.8 м/с2 %
Мы используем cookies
Соглашаюсь